sensor_id;sensor_type;location;lat;lon;timestamp;temperature;humidity
75430;DHT22;64127;51.488;5.462;2023-05-02T00:01:57;14.50;99.90
75430;DHT22;64127;51.488;5.462;2023-05-02T00:04:29;14.50;99.90
75430;DHT22;64127;51.488;5.462;2023-05-02T00:07:01;14.50;99.90
75430;DHT22;64127;51.488;5.462;2023-05-02T00:09:33;14.40;99.90
75430;DHT22;64127;51.488;5.462;2023-05-02T00:12:05;14.40;99.90
75430;DHT22;64127;51.488;5.462;2023-05-02T00:14:37;14.40;99.90
75430;DHT22;64127;51.488;5.462;2023-05-02T00:17:16;14.40;99.90
75430;DHT22;64127;51.488;5.462;2023-05-02T00:19:49;14.40;99.90
75430;DHT22;64127;51.488;5.462;2023-05-02T00:22:21;14.40;99.90
75430;DHT22;64127;51.488;5.462;2023-05-02T00:24:56;14.30;99.90
75430;DHT22;64127;51.488;5.462;2023-05-02T00:27:29;14.30;99.90
75430;DHT22;64127;51.488;5.462;2023-05-02T00:30:02;14.30;99.90
75430;DHT22;64127;51.488;5.462;2023-05-02T00:32:35;14.30;99.90
75430;DHT22;64127;51.488;5.462;2023-05-02T00:35:07;14.30;99.90
75430;DHT22;64127;51.488;5.462;2023-05-02T00:37:39;14.20;99.90
75430;DHT22;64127;51.488;5.462;2023-05-02T00:40:12;14.30;99.90
75430;DHT22;64127;51.488;5.462;2023-05-02T00:42:44;14.30;99.90
75430;DHT22;64127;51.488;5.462;2023-05-02T00:45:16;14.30;99.90
75430;DHT22;64127;51.488;5.462;2023-05-02T00:47:49;14.30;99.90
75430;DHT22;64127;51.488;5.462;2023-05-02T00:50:21;14.40;99.90
75430;DHT22;64127;51.488;5.462;2023-05-02T00:52:54;14.40;99.90
75430;DHT22;64127;51.488;5.462;2023-05-02T00:55:26;14.40;99.90
75430;DHT22;64127;51.488;5.462;2023-05-02T00:58:13;14.30;99.90
75430;DHT22;64127;51.488;5.462;2023-05-02T01:15:18;14.20;99.90
75430;DHT22;64127;51.488;5.462;2023-05-02T01:17:55;14.10;99.90
75430;DHT22;64127;51.488;5.462;2023-05-02T01:20:30;14.10;99.90
75430;DHT22;64127;51.488;5.462;2023-05-02T01:26:35;14.10;99.90
75430;DHT22;64127;51.488;5.462;2023-05-02T01:29:21;14.10;99.90
75430;DHT22;64127;51.488;5.462;2023-05-02T01:31:56;14.10;99.90
75430;DHT22;64127;51.488;5.462;2023-05-02T01:34:30;14.10;99.90
75430;DHT22;64127;51.488;5.462;2023-05-02T01:37:04;14.10;99.90
75430;DHT22;64127;51.488;5.462;2023-05-02T01:39:39;14.10;99.90
75430;DHT22;64127;51.488;5.462;2023-05-02T01:42:14;14.20;99.90
75430;DHT22;64127;51.488;5.462;2023-05-02T01:44:49;14.10;99.90
75430;DHT22;64127;51.488;5.462;2023-05-02T01:47:26;14.10;99.90
75430;DHT22;64127;51.488;5.462;2023-05-02T01:50:05;14.10;99.90
75430;DHT22;64127;51.488;5.462;2023-05-02T01:52:40;14.10;99.90
75430;DHT22;64127;51.488;5.462;2023-05-02T01:55:16;14.00;99.90
75430;DHT22;64127;51.488;5.462;2023-05-02T01:57:50;14.00;99.90
75430;DHT22;64127;51.488;5.462;2023-05-02T02:00:25;14.00;99.90
75430;DHT22;64127;51.488;5.462;2023-05-02T02:03:01;14.00;99.90
75430;DHT22;64127;51.488;5.462;2023-05-02T02:05:36;13.90;99.90
75430;DHT22;64127;51.488;5.462;2023-05-02T02:08:10;13.90;99.90
75430;DHT22;64127;51.488;5.462;2023-05-02T02:10:45;13.90;99.90
75430;DHT22;64127;51.488;5.462;2023-05-02T02:13:30;13.80;99.90
75430;DHT22;64127;51.488;5.462;2023-05-02T02:16:10;13.80;99.90
75430;DHT22;64127;51.488;5.462;2023-05-02T02:18:44;13.80;99.90
75430;DHT22;64127;51.488;5.462;2023-05-02T02:21:17;13.80;99.90
75430;DHT22;64127;51.488;5.462;2023-05-02T02:23:55;13.80;99.90
75430;DHT22;64127;51.488;5.462;2023-05-02T02:26:31;13.70;99.90
75430;DHT22;64127;51.488;5.462;2023-05-02T02:29:04;13.70;99.90
75430;DHT22;64127;51.488;5.462;2023-05-02T02:31:36;13.70;99.90
75430;DHT22;64127;51.488;5.462;2023-05-02T02:34:10;13.70;99.90
75430;DHT22;64127;51.488;5.462;2023-05-02T02:36:52;13.70;99.90
75430;DHT22;64127;51.488;5.462;2023-05-02T02:43:03;13.60;99.90
75430;DHT22;64127;51.488;5.462;2023-05-02T02:46:06;13.60;99.90
75430;DHT22;64127;51.488;5.462;2023-05-02T02:48:56;13.60;99.90
75430;DHT22;64127;51.488;5.462;2023-05-02T02:51:43;13.50;99.90
75430;DHT22;64127;51.488;5.462;2023-05-02T02:54:19;13.50;99.90
75430;DHT22;64127;51.488;5.462;2023-05-02T02:57:26;13.60;99.90
75430;DHT22;64127;51.488;5.462;2023-05-02T03:00:18;13.50;99.90
75430;DHT22;64127;51.488;5.462;2023-05-02T03:02:53;13.40;99.90
75430;DHT22;64127;51.488;5.462;2023-05-02T03:05:28;13.40;99.90
75430;DHT22;64127;51.488;5.462;2023-05-02T03:08:01;13.30;99.90
75430;DHT22;64127;51.488;5.462;2023-05-02T03:10:33;13.40;99.90
75430;DHT22;64127;51.488;5.462;2023-05-02T03:13:05;13.40;99.90
75430;DHT22;64127;51.488;5.462;2023-05-02T03:18:58;13.40;99.90
75430;DHT22;64127;51.488;5.462;2023-05-02T03:21:31;13.40;99.90
75430;DHT22;64127;51.488;5.462;2023-05-02T03:24:04;13.50;99.90
75430;DHT22;64127;51.488;5.462;2023-05-02T03:26:36;13.50;99.90
75430;DHT22;64127;51.488;5.462;2023-05-02T03:29:08;13.50;99.90
75430;DHT22;64127;51.488;5.462;2023-05-02T03:31:41;13.50;99.90
75430;DHT22;64127;51.488;5.462;2023-05-02T03:34:13;13.50;99.90
75430;DHT22;64127;51.488;5.462;2023-05-02T03:36:45;13.50;99.90
75430;DHT22;64127;51.488;5.462;2023-05-02T03:39:17;13.50;99.90
75430;DHT22;64127;51.488;5.462;2023-05-02T03:41:49;13.50;99.90
75430;DHT22;64127;51.488;5.462;2023-05-02T03:44:21;13.40;99.90
75430;DHT22;64127;51.488;5.462;2023-05-02T03:46:53;13.40;99.90
75430;DHT22;64127;51.488;5.462;2023-05-02T03:49:25;13.40;99.90
75430;DHT22;64127;51.488;5.462;2023-05-02T03:51:59;13.40;99.90
75430;DHT22;64127;51.488;5.462;2023-05-02T03:54:31;13.40;99.90
75430;DHT22;64127;51.488;5.462;2023-05-02T03:57:03;13.40;99.90
75430;DHT22;64127;51.488;5.462;2023-05-02T03:59:36;13.50;99.90
75430;DHT22;64127;51.488;5.462;2023-05-02T04:02:12;13.40;99.90
75430;DHT22;64127;51.488;5.462;2023-05-02T04:04:44;13.40;99.90
75430;DHT22;64127;51.488;5.462;2023-05-02T04:07:17;13.40;99.90
75430;DHT22;64127;51.488;5.462;2023-05-02T04:09:50;13.40;99.90
75430;DHT22;64127;51.488;5.462;2023-05-02T04:12:22;13.40;99.90
75430;DHT22;64127;51.488;5.462;2023-05-02T04:14:54;13.50;99.90
75430;DHT22;64127;51.488;5.462;2023-05-02T04:17:27;13.40;99.90
75430;DHT22;64127;51.488;5.462;2023-05-02T04:19:59;13.40;99.90
75430;DHT22;64127;51.488;5.462;2023-05-02T04:22:35;13.40;99.90
75430;DHT22;64127;51.488;5.462;2023-05-02T04:25:10;13.50;99.90
75430;DHT22;64127;51.488;5.462;2023-05-02T04:27:42;13.50;99.90
75430;DHT22;64127;51.488;5.462;2023-05-02T04:30:14;13.50;99.90
75430;DHT22;64127;51.488;5.462;2023-05-02T04:32:47;13.50;99.90
75430;DHT22;64127;51.488;5.462;2023-05-02T04:35:19;13.50;99.90
75430;DHT22;64127;51.488;5.462;2023-05-02T04:37:51;13.50;99.90
75430;DHT22;64127;51.488;5.462;2023-05-02T04:40:23;13.40;99.90
75430;DHT22;64127;51.488;5.462;2023-05-02T04:42:55;13.40;99.90
75430;DHT22;64127;51.488;5.462;2023-05-02T04:45:27;13.40;99.90
75430;DHT22;64127;51.488;5.462;2023-05-02T04:47:59;13.30;99.90
75430;DHT22;64127;51.488;5.462;2023-05-02T04:50:31;13.20;99.90
75430;DHT22;64127;51.488;5.462;2023-05-02T04:53:03;13.10;99.90
75430;DHT22;64127;51.488;5.462;2023-05-02T04:55:36;13.10;99.90
75430;DHT22;64127;51.488;5.462;2023-05-02T04:58:08;13.10;99.90
75430;DHT22;64127;51.488;5.462;2023-05-02T05:00:40;13.10;99.90
75430;DHT22;64127;51.488;5.462;2023-05-02T05:03:12;13.00;99.90
75430;DHT22;64127;51.488;5.462;2023-05-02T05:05:44;13.00;99.90
75430;DHT22;64127;51.488;5.462;2023-05-02T05:08:16;13.00;99.90
75430;DHT22;64127;51.488;5.462;2023-05-02T05:10:49;13.00;99.90
75430;DHT22;64127;51.488;5.462;2023-05-02T05:13:21;13.00;99.90
75430;DHT22;64127;51.488;5.462;2023-05-02T05:15:53;13.00;99.90
75430;DHT22;64127;51.488;5.462;2023-05-02T05:18:25;13.10;99.90
75430;DHT22;64127;51.488;5.462;2023-05-02T05:20:58;13.10;99.90
75430;DHT22;64127;51.488;5.462;2023-05-02T05:23:30;13.00;99.90
75430;DHT22;64127;51.488;5.462;2023-05-02T05:26:15;13.00;99.90
75430;DHT22;64127;51.488;5.462;2023-05-02T05:28:47;13.10;99.90
75430;DHT22;64127;51.488;5.462;2023-05-02T05:31:20;13.10;99.90
75430;DHT22;64127;51.488;5.462;2023-05-02T05:33:55;13.10;99.90
75430;DHT22;64127;51.488;5.462;2023-05-02T05:36:28;13.10;99.90
75430;DHT22;64127;51.488;5.462;2023-05-02T05:39:00;13.10;99.90
75430;DHT22;64127;51.488;5.462;2023-05-02T05:41:32;13.10;99.90
75430;DHT22;64127;51.488;5.462;2023-05-02T05:44:04;13.10;99.90
75430;DHT22;64127;51.488;5.462;2023-05-02T05:46:36;13.10;99.90
75430;DHT22;64127;51.488;5.462;2023-05-02T05:49:09;13.10;99.90
75430;DHT22;64127;51.488;5.462;2023-05-02T05:51:41;13.10;99.90
75430;DHT22;64127;51.488;5.462;2023-05-02T05:54:13;13.20;99.90
75430;DHT22;64127;51.488;5.462;2023-05-02T05:56:45;13.20;99.90
75430;DHT22;64127;51.488;5.462;2023-05-02T05:59:17;13.30;99.90
75430;DHT22;64127;51.488;5.462;2023-05-02T06:01:49;13.40;99.90
75430;DHT22;64127;51.488;5.462;2023-05-02T06:04:22;13.50;99.90
75430;DHT22;64127;51.488;5.462;2023-05-02T06:06:55;13.60;99.90
75430;DHT22;64127;51.488;5.462;2023-05-02T06:09:27;13.70;99.90
75430;DHT22;64127;51.488;5.462;2023-05-02T06:12:00;13.80;99.90
75430;DHT22;64127;51.488;5.462;2023-05-02T06:14:33;14.00;99.90
75430;DHT22;64127;51.488;5.462;2023-05-02T06:17:05;14.10;99.90
75430;DHT22;64127;51.488;5.462;2023-05-02T06:19:37;14.20;99.90
75430;DHT22;64127;51.488;5.462;2023-05-02T06:22:11;14.30;99.60
75430;DHT22;64127;51.488;5.462;2023-05-02T06:24:44;14.50;99.20
75430;DHT22;64127;51.488;5.462;2023-05-02T06:27:16;14.60;98.90
75430;DHT22;64127;51.488;5.462;2023-05-02T06:29:52;14.70;98.60
75430;DHT22;64127;51.488;5.462;2023-05-02T06:32:29;14.80;98.30
75430;DHT22;64127;51.488;5.462;2023-05-02T06:35:02;14.90;98.00
75430;DHT22;64127;51.488;5.462;2023-05-02T06:37:35;15.00;98.10
75430;DHT22;64127;51.488;5.462;2023-05-02T06:40:07;15.10;97.50
75430;DHT22;64127;51.488;5.462;2023-05-02T06:42:40;15.10;97.10
75430;DHT22;64127;51.488;5.462;2023-05-02T06:45:12;15.00;96.90
75430;DHT22;64127;51.488;5.462;2023-05-02T06:47:44;14.80;97.00
75430;DHT22;64127;51.488;5.462;2023-05-02T06:50:17;14.70;97.20
75430;DHT22;64127;51.488;5.462;2023-05-02T06:52:49;14.50;97.20
75430;DHT22;64127;51.488;5.462;2023-05-02T06:55:21;14.30;97.30
75430;DHT22;64127;51.488;5.462;2023-05-02T06:57:53;14.30;97.60
75430;DHT22;64127;51.488;5.462;2023-05-02T07:00:27;14.40;97.70
75430;DHT22;64127;51.488;5.462;2023-05-02T07:02:59;14.50;97.60
75430;DHT22;64127;51.488;5.462;2023-05-02T07:05:31;14.60;97.50
75430;DHT22;64127;51.488;5.462;2023-05-02T07:08:04;14.60;97.30
75430;DHT22;64127;51.488;5.462;2023-05-02T07:10:36;14.50;97.10
75430;DHT22;64127;51.488;5.462;2023-05-02T07:13:08;14.50;97.00
75430;DHT22;64127;51.488;5.462;2023-05-02T07:15:41;14.40;97.10
75430;DHT22;64127;51.488;5.462;2023-05-02T07:18:13;14.50;97.40
75430;DHT22;64127;51.488;5.462;2023-05-02T07:20:45;14.70;97.30
75430;DHT22;64127;51.488;5.462;2023-05-02T07:23:17;14.80;96.80
75430;DHT22;64127;51.488;5.462;2023-05-02T07:25:50;14.90;96.60
75430;DHT22;64127;51.488;5.462;2023-05-02T07:28:23;15.10;96.40
75430;DHT22;64127;51.488;5.462;2023-05-02T07:30:55;15.20;95.80
75430;DHT22;64127;51.488;5.462;2023-05-02T07:33:27;15.20;95.50
75430;DHT22;64127;51.488;5.462;2023-05-02T07:36:00;15.10;95.50
75430;DHT22;64127;51.488;5.462;2023-05-02T07:38:33;15.10;95.30
75430;DHT22;64127;51.488;5.462;2023-05-02T07:41:05;14.90;95.30
75430;DHT22;64127;51.488;5.462;2023-05-02T07:43:37;14.90;95.30
75430;DHT22;64127;51.488;5.462;2023-05-02T07:46:09;14.90;95.20
75430;DHT22;64127;51.488;5.462;2023-05-02T07:48:42;14.90;95.20
75430;DHT22;64127;51.488;5.462;2023-05-02T07:51:14;15.00;95.30
75430;DHT22;64127;51.488;5.462;2023-05-02T07:53:48;15.00;95.30
75430;DHT22;64127;51.488;5.462;2023-05-02T07:56:24;15.00;94.90
75430;DHT22;64127;51.488;5.462;2023-05-02T07:58:56;15.00;94.40
75430;DHT22;64127;51.488;5.462;2023-05-02T08:01:28;14.90;94.10
75430;DHT22;64127;51.488;5.462;2023-05-02T08:04:00;14.80;94.00
75430;DHT22;64127;51.488;5.462;2023-05-02T08:06:33;14.70;94.00
75430;DHT22;64127;51.488;5.462;2023-05-02T08:09:05;14.70;94.00
75430;DHT22;64127;51.488;5.462;2023-05-02T08:11:37;14.60;93.90
75430;DHT22;64127;51.488;5.462;2023-05-02T08:14:09;14.50;94.10
75430;DHT22;64127;51.488;5.462;2023-05-02T08:16:41;14.30;94.20
75430;DHT22;64127;51.488;5.462;2023-05-02T08:19:17;14.30;94.30
75430;DHT22;64127;51.488;5.462;2023-05-02T08:21:49;14.20;94.30
75430;DHT22;64127;51.488;5.462;2023-05-02T08:24:21;14.20;94.20
75430;DHT22;64127;51.488;5.462;2023-05-02T08:26:53;14.10;94.00
75430;DHT22;64127;51.488;5.462;2023-05-02T08:29:29;14.00;94.00
75430;DHT22;64127;51.488;5.462;2023-05-02T08:32:02;14.00;94.00
75430;DHT22;64127;51.488;5.462;2023-05-02T08:34:34;14.00;93.60
75430;DHT22;64127;51.488;5.462;2023-05-02T08:37:09;14.00;93.60
75430;DHT22;64127;51.488;5.462;2023-05-02T08:39:42;13.90;93.30
75430;DHT22;64127;51.488;5.462;2023-05-02T08:42:14;14.00;93.50
75430;DHT22;64127;51.488;5.462;2023-05-02T08:44:47;14.10;93.40
75430;DHT22;64127;51.488;5.462;2023-05-02T08:47:21;14.20;92.90
75430;DHT22;64127;51.488;5.462;2023-05-02T08:49:57;14.30;92.70
75430;DHT22;64127;51.488;5.462;2023-05-02T08:52:31;14.40;92.50
75430;DHT22;64127;51.488;5.462;2023-05-02T08:55:05;14.50;92.00
75430;DHT22;64127;51.488;5.462;2023-05-02T08:57:38;14.60;91.90
75430;DHT22;64127;51.488;5.462;2023-05-02T09:00:12;14.70;91.40
75430;DHT22;64127;51.488;5.462;2023-05-02T09:03:26;14.80;91.10
75430;DHT22;64127;51.488;5.462;2023-05-02T09:08:49;15.00;90.10
75430;DHT22;64127;51.488;5.462;2023-05-02T09:11:25;15.10;89.90
75430;DHT22;64127;51.488;5.462;2023-05-02T09:13:58;15.20;89.40
75430;DHT22;64127;51.488;5.462;2023-05-02T09:16:38;15.30;89.00
75430;DHT22;64127;51.488;5.462;2023-05-02T09:19:23;15.50;87.80
75430;DHT22;64127;51.488;5.462;2023-05-02T09:21:59;15.50;86.50
75430;DHT22;64127;51.488;5.462;2023-05-02T09:24:32;15.60;86.20
75430;DHT22;64127;51.488;5.462;2023-05-02T09:27:04;15.70;85.80
75430;DHT22;64127;51.488;5.462;2023-05-02T09:29:36;15.80;85.30
75430;DHT22;64127;51.488;5.462;2023-05-02T09:32:09;15.80;84.70
75430;DHT22;64127;51.488;5.462;2023-05-02T09:35:05;16.00;84.40
75430;DHT22;64127;51.488;5.462;2023-05-02T09:37:37;16.20;84.00
75430;DHT22;64127;51.488;5.462;2023-05-02T09:40:10;16.50;83.70
75430;DHT22;64127;51.488;5.462;2023-05-02T09:42:43;17.00;82.60
75430;DHT22;64127;51.488;5.462;2023-05-02T09:45:23;17.40;80.50
75430;DHT22;64127;51.488;5.462;2023-05-02T09:48:01;17.40;79.10
75430;DHT22;64127;51.488;5.462;2023-05-02T09:50:35;17.30;78.70
75430;DHT22;64127;51.488;5.462;2023-05-02T09:53:08;17.10;78.60
75430;DHT22;64127;51.488;5.462;2023-05-02T09:55:41;17.00;78.80
75430;DHT22;64127;51.488;5.462;2023-05-02T09:58:20;16.90;78.50
75430;DHT22;64127;51.488;5.462;2023-05-02T10:00:53;16.90;78.00
75430;DHT22;64127;51.488;5.462;2023-05-02T10:03:28;16.90;78.00
75430;DHT22;64127;51.488;5.462;2023-05-02T10:06:01;16.80;77.80
75430;DHT22;64127;51.488;5.462;2023-05-02T10:08:34;16.80;78.00
75430;DHT22;64127;51.488;5.462;2023-05-02T10:11:07;16.80;77.90
75430;DHT22;64127;51.488;5.462;2023-05-02T10:13:42;16.80;78.10
75430;DHT22;64127;51.488;5.462;2023-05-02T10:16:21;16.80;78.00
75430;DHT22;64127;51.488;5.462;2023-05-02T10:19:05;16.70;77.80
75430;DHT22;64127;51.488;5.462;2023-05-02T10:21:42;16.70;77.70
75430;DHT22;64127;51.488;5.462;2023-05-02T10:24:15;16.60;77.40
75430;DHT22;64127;51.488;5.462;2023-05-02T10:26:48;16.80;77.30
75430;DHT22;64127;51.488;5.462;2023-05-02T10:29:21;16.90;76.60
75430;DHT22;64127;51.488;5.462;2023-05-02T10:31:54;17.10;76.10
75430;DHT22;64127;51.488;5.462;2023-05-02T10:34:31;17.20;75.30
75430;DHT22;64127;51.488;5.462;2023-05-02T10:37:04;17.40;74.90
75430;DHT22;64127;51.488;5.462;2023-05-02T10:39:36;17.70;74.50
75430;DHT22;64127;51.488;5.462;2023-05-02T10:42:09;17.80;73.60
75430;DHT22;64127;51.488;5.462;2023-05-02T10:44:41;17.80;73.40
75430;DHT22;64127;51.488;5.462;2023-05-02T10:47:26;17.70;73.80
75430;DHT22;64127;51.488;5.462;2023-05-02T10:50:00;17.50;73.40
75430;DHT22;64127;51.488;5.462;2023-05-02T10:52:36;17.40;73.80
75430;DHT22;64127;51.488;5.462;2023-05-02T11:00:31;17.00;74.20
75430;DHT22;64127;51.488;5.462;2023-05-02T11:03:04;17.00;74.50
75430;DHT22;64127;51.488;5.462;2023-05-02T11:06:03;17.00;74.20
75430;DHT22;64127;51.488;5.462;2023-05-02T11:08:37;17.00;72.90
75430;DHT22;64127;51.488;5.462;2023-05-02T11:11:43;17.00;72.80
75430;DHT22;64127;51.488;5.462;2023-05-02T11:24:50;17.60;70.70
75430;DHT22;64127;51.488;5.462;2023-05-02T11:30:01;17.80;69.40
75430;DHT22;64127;51.488;5.462;2023-05-02T11:35:22;17.80;68.50
75430;DHT22;64127;51.488;5.462;2023-05-02T11:37:59;17.70;68.20
75430;DHT22;64127;51.488;5.462;2023-05-02T11:40:35;17.60;68.00
75430;DHT22;64127;51.488;5.462;2023-05-02T11:43:14;17.60;68.00
75430;DHT22;64127;51.488;5.462;2023-05-02T11:45:47;17.80;67.60
75430;DHT22;64127;51.488;5.462;2023-05-02T11:48:21;18.00;66.70
75430;DHT22;64127;51.488;5.462;2023-05-02T11:50:57;18.10;66.20
75430;DHT22;64127;51.488;5.462;2023-05-02T11:53:39;18.20;66.00
75430;DHT22;64127;51.488;5.462;2023-05-02T11:56:12;18.20;65.70
75430;DHT22;64127;51.488;5.462;2023-05-02T11:58:44;18.20;65.90
75430;DHT22;64127;51.488;5.462;2023-05-02T12:01:17;18.30;65.90
75430;DHT22;64127;51.488;5.462;2023-05-02T12:03:49;18.40;65.50
75430;DHT22;64127;51.488;5.462;2023-05-02T12:06:32;18.40;65.10
75430;DHT22;64127;51.488;5.462;2023-05-02T12:09:14;18.20;64.80
75430;DHT22;64127;51.488;5.462;2023-05-02T12:11:51;18.20;64.60
75430;DHT22;64127;51.488;5.462;2023-05-02T12:14:31;18.30;64.50
75430;DHT22;64127;51.488;5.462;2023-05-02T12:17:04;18.50;64.20
75430;DHT22;64127;51.488;5.462;2023-05-02T12:19:37;18.60;63.60
75430;DHT22;64127;51.488;5.462;2023-05-02T12:22:10;18.50;63.30
75430;DHT22;64127;51.488;5.462;2023-05-02T12:24:44;18.50;63.00
75430;DHT22;64127;51.488;5.462;2023-05-02T12:27:16;18.40;62.60
75430;DHT22;64127;51.488;5.462;2023-05-02T12:29:49;18.50;62.70
75430;DHT22;64127;51.488;5.462;2023-05-02T12:32:29;18.60;62.00
75430;DHT22;64127;51.488;5.462;2023-05-02T12:35:03;18.60;61.20
75430;DHT22;64127;51.488;5.462;2023-05-02T12:37:36;18.60;61.30
75430;DHT22;64127;51.488;5.462;2023-05-02T12:40:14;18.70;61.10
75430;DHT22;64127;51.488;5.462;2023-05-02T12:43:00;18.90;60.80
75430;DHT22;64127;51.488;5.462;2023-05-02T12:45:35;18.80;60.40
75430;DHT22;64127;51.488;5.462;2023-05-02T12:50:49;18.60;59.90
75430;DHT22;64127;51.488;5.462;2023-05-02T12:53:42;18.50;59.70
75430;DHT22;64127;51.488;5.462;2023-05-02T12:56:16;18.70;59.80
75430;DHT22;64127;51.488;5.462;2023-05-02T12:58:48;18.90;59.50
75430;DHT22;64127;51.488;5.462;2023-05-02T13:01:21;18.90;58.40
75430;DHT22;64127;51.488;5.462;2023-05-02T13:03:53;18.70;58.50
75430;DHT22;64127;51.488;5.462;2023-05-02T13:06:27;18.60;59.00
75430;DHT22;64127;51.488;5.462;2023-05-02T13:08:59;18.60;58.80
75430;DHT22;64127;51.488;5.462;2023-05-02T13:11:31;18.80;58.70
75430;DHT22;64127;51.488;5.462;2023-05-02T13:14:03;18.90;58.30
75430;DHT22;64127;51.488;5.462;2023-05-02T13:16:36;18.90;58.20
75430;DHT22;64127;51.488;5.462;2023-05-02T13:19:08;19.10;58.50
75430;DHT22;64127;51.488;5.462;2023-05-02T13:21:41;19.30;58.20
75430;DHT22;64127;51.488;5.462;2023-05-02T13:24:13;19.30;57.60
75430;DHT22;64127;51.488;5.462;2023-05-02T13:26:45;19.40;57.40
75430;DHT22;64127;51.488;5.462;2023-05-02T13:29:17;19.40;57.20
75430;DHT22;64127;51.488;5.462;2023-05-02T13:31:49;19.40;57.20
75430;DHT22;64127;51.488;5.462;2023-05-02T13:34:21;19.50;56.80
75430;DHT22;64127;51.488;5.462;2023-05-02T13:36:53;19.40;56.60
75430;DHT22;64127;51.488;5.462;2023-05-02T13:39:27;19.50;56.90
75430;DHT22;64127;51.488;5.462;2023-05-02T13:42:00;19.60;56.50
75430;DHT22;64127;51.488;5.462;2023-05-02T13:44:36;19.70;56.40
75430;DHT22;64127;51.488;5.462;2023-05-02T13:47:09;19.70;56.20
75430;DHT22;64127;51.488;5.462;2023-05-02T13:49:41;19.80;56.10
75430;DHT22;64127;51.488;5.462;2023-05-02T13:52:13;20.00;56.00
75430;DHT22;64127;51.488;5.462;2023-05-02T13:54:45;20.10;55.90
75430;DHT22;64127;51.488;5.462;2023-05-02T13:57:17;20.20;55.50
75430;DHT22;64127;51.488;5.462;2023-05-02T13:59:49;20.20;55.10
75430;DHT22;64127;51.488;5.462;2023-05-02T14:02:22;20.20;54.90
75430;DHT22;64127;51.488;5.462;2023-05-02T14:04:54;20.00;54.50
75430;DHT22;64127;51.488;5.462;2023-05-02T14:07:27;19.90;55.00
75430;DHT22;64127;51.488;5.462;2023-05-02T14:09:59;19.80;54.00
75430;DHT22;64127;51.488;5.462;2023-05-02T14:12:31;19.50;53.50
75430;DHT22;64127;51.488;5.462;2023-05-02T14:15:04;19.40;54.00
75430;DHT22;64127;51.488;5.462;2023-05-02T14:17:37;19.40;54.20
75430;DHT22;64127;51.488;5.462;2023-05-02T14:20:09;19.50;54.40
75430;DHT22;64127;51.488;5.462;2023-05-02T14:22:41;19.50;54.30
75430;DHT22;64127;51.488;5.462;2023-05-02T14:25:13;19.50;54.00
75430;DHT22;64127;51.488;5.462;2023-05-02T14:27:46;19.50;54.00
75430;DHT22;64127;51.488;5.462;2023-05-02T14:30:18;19.50;54.20
75430;DHT22;64127;51.488;5.462;2023-05-02T14:32:50;19.60;54.30
75430;DHT22;64127;51.488;5.462;2023-05-02T14:35:23;19.60;54.30
75430;DHT22;64127;51.488;5.462;2023-05-02T14:37:55;19.70;54.20
75430;DHT22;64127;51.488;5.462;2023-05-02T14:40:27;19.80;53.90
75430;DHT22;64127;51.488;5.462;2023-05-02T14:42:59;19.80;53.70
75430;DHT22;64127;51.488;5.462;2023-05-02T14:45:32;19.80;53.70
75430;DHT22;64127;51.488;5.462;2023-05-02T14:48:04;19.80;53.40
75430;DHT22;64127;51.488;5.462;2023-05-02T14:50:37;19.70;53.30
75430;DHT22;64127;51.488;5.462;2023-05-02T14:53:10;19.70;53.10
75430;DHT22;64127;51.488;5.462;2023-05-02T14:55:42;19.70;52.90
75430;DHT22;64127;51.488;5.462;2023-05-02T14:58:14;19.70;53.10
75430;DHT22;64127;51.488;5.462;2023-05-02T15:00:51;19.60;53.00
75430;DHT22;64127;51.488;5.462;2023-05-02T15:03:23;19.50;53.20
75430;DHT22;64127;51.488;5.462;2023-05-02T15:05:56;19.40;53.00
75430;DHT22;64127;51.488;5.462;2023-05-02T15:08:28;19.30;53.10
75430;DHT22;64127;51.488;5.462;2023-05-02T15:11:00;19.10;53.20
75430;DHT22;64127;51.488;5.462;2023-05-02T15:13:32;18.90;54.20
75430;DHT22;64127;51.488;5.462;2023-05-02T15:16:04;18.90;54.20
75430;DHT22;64127;51.488;5.462;2023-05-02T15:18:37;19.00;53.60
75430;DHT22;64127;51.488;5.462;2023-05-02T15:21:09;18.90;53.50
75430;DHT22;64127;51.488;5.462;2023-05-02T15:23:41;18.90;53.60
75430;DHT22;64127;51.488;5.462;2023-05-02T15:26:14;19.00;53.60
75430;DHT22;64127;51.488;5.462;2023-05-02T15:28:47;19.00;53.00
75430;DHT22;64127;51.488;5.462;2023-05-02T15:31:19;18.90;52.80
75430;DHT22;64127;51.488;5.462;2023-05-02T15:33:51;18.80;53.00
75430;DHT22;64127;51.488;5.462;2023-05-02T15:36:27;18.80;53.20
75430;DHT22;64127;51.488;5.462;2023-05-02T15:39:04;18.70;53.40
75430;DHT22;64127;51.488;5.462;2023-05-02T15:41:37;18.70;53.50
75430;DHT22;64127;51.488;5.462;2023-05-02T15:44:09;18.70;53.40
75430;DHT22;64127;51.488;5.462;2023-05-02T15:46:42;18.80;53.60
75430;DHT22;64127;51.488;5.462;2023-05-02T15:49:17;18.80;53.60
75430;DHT22;64127;51.488;5.462;2023-05-02T15:51:49;18.90;53.60
75430;DHT22;64127;51.488;5.462;2023-05-02T15:54:21;18.90;53.40
75430;DHT22;64127;51.488;5.462;2023-05-02T15:56:53;18.80;53.50
75430;DHT22;64127;51.488;5.462;2023-05-02T15:59:27;18.80;53.50
75430;DHT22;64127;51.488;5.462;2023-05-02T16:01:59;18.80;53.50
75430;DHT22;64127;51.488;5.462;2023-05-02T16:04:31;18.80;53.50
75430;DHT22;64127;51.488;5.462;2023-05-02T16:07:05;18.70;53.40
75430;DHT22;64127;51.488;5.462;2023-05-02T16:09:37;18.70;53.70
75430;DHT22;64127;51.488;5.462;2023-05-02T16:12:10;18.70;54.00
75430;DHT22;64127;51.488;5.462;2023-05-02T16:14:42;18.70;54.20
75430;DHT22;64127;51.488;5.462;2023-05-02T16:17:15;18.70;54.20
75430;DHT22;64127;51.488;5.462;2023-05-02T16:19:47;18.60;54.00
75430;DHT22;64127;51.488;5.462;2023-05-02T16:22:19;18.50;54.10
75430;DHT22;64127;51.488;5.462;2023-05-02T16:24:51;18.40;54.20
75430;DHT22;64127;51.488;5.462;2023-05-02T16:27:23;18.30;54.20
75430;DHT22;64127;51.488;5.462;2023-05-02T16:29:55;18.30;54.10
75430;DHT22;64127;51.488;5.462;2023-05-02T16:32:28;18.20;54.00
75430;DHT22;64127;51.488;5.462;2023-05-02T16:35:00;18.20;54.00
75430;DHT22;64127;51.488;5.462;2023-05-02T16:37:35;18.20;54.20
75430;DHT22;64127;51.488;5.462;2023-05-02T16:40:08;18.10;54.10
75430;DHT22;64127;51.488;5.462;2023-05-02T16:42:41;18.10;54.40
75430;DHT22;64127;51.488;5.462;2023-05-02T16:45:13;18.10;54.30
75430;DHT22;64127;51.488;5.462;2023-05-02T16:47:45;18.00;54.20
75430;DHT22;64127;51.488;5.462;2023-05-02T16:50:18;18.00;54.30
75430;DHT22;64127;51.488;5.462;2023-05-02T16:52:50;17.90;54.10
75430;DHT22;64127;51.488;5.462;2023-05-02T16:55:22;17.90;54.10
75430;DHT22;64127;51.488;5.462;2023-05-02T16:57:54;17.80;53.90
75430;DHT22;64127;51.488;5.462;2023-05-02T17:00:27;17.70;53.90
75430;DHT22;64127;51.488;5.462;2023-05-02T17:03:00;17.70;54.00
75430;DHT22;64127;51.488;5.462;2023-05-02T17:05:35;17.60;54.00